sensor_id;sensor_type;location;lat;lon;timestamp;pressure;altitude;pressure_sealevel;temperature;humidity
13594;BME280;6449;47.666;9.160;2023-09-19T00:03:46;96748.47;;;17.90;100.00
13594;BME280;6449;47.666;9.160;2023-09-19T00:08:39;96748.78;;;17.87;100.00
13594;BME280;6449;47.666;9.160;2023-09-19T00:13:37;96747.63;;;17.89;100.00
13594;BME280;6449;47.666;9.160;2023-09-19T00:18:31;96752.59;;;17.92;100.00
13594;BME280;6449;47.666;9.160;2023-09-19T00:23:27;96764.69;;;17.95;100.00
13594;BME280;6449;47.666;9.160;2023-09-19T00:28:21;96771.34;;;17.91;100.00
13594;BME280;6449;47.666;9.160;2023-09-19T00:33:16;96773.66;;;17.94;100.00
13594;BME280;6449;47.666;9.160;2023-09-19T00:38:11;96773.16;;;17.82;100.00
13594;BME280;6449;47.666;9.160;2023-09-19T00:43:08;96765.84;;;17.84;100.00
13594;BME280;6449;47.666;9.160;2023-09-19T00:48:04;96768.00;;;17.72;100.00
13594;BME280;6449;47.666;9.160;2023-09-19T00:53:03;96766.78;;;17.67;100.00
13594;BME280;6449;47.666;9.160;2023-09-19T00:58:00;96770.75;;;17.63;100.00
13594;BME280;6449;47.666;9.160;2023-09-19T01:02:54;96770.97;;;17.69;100.00
13594;BME280;6449;47.666;9.160;2023-09-19T01:07:48;96780.94;;;17.75;100.00
13594;BME280;6449;47.666;9.160;2023-09-19T01:12:59;96783.59;;;17.75;100.00
13594;BME280;6449;47.666;9.160;2023-09-19T01:18:09;96797.50;;;17.77;100.00
13594;BME280;6449;47.666;9.160;2023-09-19T01:23:15;96806.81;;;17.90;100.00
13594;BME280;6449;47.666;9.160;2023-09-19T01:28:30;96800.31;;;17.76;100.00
13594;BME280;6449;47.666;9.160;2023-09-19T01:33:58;96803.31;;;17.81;100.00
13594;BME280;6449;47.666;9.160;2023-09-19T01:38:52;96816.22;;;17.84;100.00
13594;BME280;6449;47.666;9.160;2023-09-19T01:43:49;96824.84;;;17.78;100.00
13594;BME280;6449;47.666;9.160;2023-09-19T01:48:57;96823.69;;;17.72;100.00
13594;BME280;6449;47.666;9.160;2023-09-19T01:54:04;96818.00;;;17.67;100.00
13594;BME280;6449;47.666;9.160;2023-09-19T01:59:08;96808.94;;;17.78;100.00
13594;BME280;6449;47.666;9.160;2023-09-19T02:04:05;96829.84;;;17.81;100.00
13594;BME280;6449;47.666;9.160;2023-09-19T02:08:58;96834.16;;;17.74;100.00
13594;BME280;6449;47.666;9.160;2023-09-19T02:13:52;96837.63;;;17.74;100.00
13594;BME280;6449;47.666;9.160;2023-09-19T02:18:47;96844.94;;;17.80;100.00
13594;BME280;6449;47.666;9.160;2023-09-19T02:23:43;96833.59;;;17.70;100.00
13594;BME280;6449;47.666;9.160;2023-09-19T02:28:36;96834.56;;;17.61;100.00
13594;BME280;6449;47.666;9.160;2023-09-19T02:33:30;96838.56;;;17.65;100.00
13594;BME280;6449;47.666;9.160;2023-09-19T02:38:25;96834.56;;;17.61;100.00
13594;BME280;6449;47.666;9.160;2023-09-19T02:43:20;96843.34;;;17.62;100.00
13594;BME280;6449;47.666;9.160;2023-09-19T02:48:14;96840.69;;;17.62;100.00
13594;BME280;6449;47.666;9.160;2023-09-19T02:53:08;96853.47;;;17.58;100.00
13594;BME280;6449;47.666;9.160;2023-09-19T02:58:03;96854.47;;;17.65;100.00
13594;BME280;6449;47.666;9.160;2023-09-19T03:03:01;96848.69;;;17.70;100.00
13594;BME280;6449;47.666;9.160;2023-09-19T03:07:56;96855.50;;;17.72;100.00
13594;BME280;6449;47.666;9.160;2023-09-19T03:12:52;96851.72;;;17.75;100.00
13594;BME280;6449;47.666;9.160;2023-09-19T03:17:47;96855.84;;;17.77;100.00
13594;BME280;6449;47.666;9.160;2023-09-19T03:22:43;96853.00;;;17.71;100.00
13594;BME280;6449;47.666;9.160;2023-09-19T03:27:37;96842.59;;;17.77;100.00
13594;BME280;6449;47.666;9.160;2023-09-19T03:32:31;96843.94;;;17.82;100.00
13594;BME280;6449;47.666;9.160;2023-09-19T03:37:24;96836.56;;;17.67;100.00
13594;BME280;6449;47.666;9.160;2023-09-19T03:42:19;96846.00;;;17.62;100.00
13594;BME280;6449;47.666;9.160;2023-09-19T03:47:17;96844.66;;;17.58;100.00
13594;BME280;6449;47.666;9.160;2023-09-19T03:52:11;96847.81;;;17.53;100.00
13594;BME280;6449;47.666;9.160;2023-09-19T03:57:04;96836.50;;;17.43;100.00
13594;BME280;6449;47.666;9.160;2023-09-19T04:02:00;96830.69;;;17.39;100.00
13594;BME280;6449;47.666;9.160;2023-09-19T04:06:54;96833.97;;;17.33;100.00
13594;BME280;6449;47.666;9.160;2023-09-19T04:11:47;96833.16;;;17.33;100.00
13594;BME280;6449;47.666;9.160;2023-09-19T04:16:42;96838.94;;;17.36;100.00
13594;BME280;6449;47.666;9.160;2023-09-19T04:21:37;96841.75;;;17.35;100.00
13594;BME280;6449;47.666;9.160;2023-09-19T04:26:31;96844.25;;;17.36;100.00
13594;BME280;6449;47.666;9.160;2023-09-19T04:31:25;96841.75;;;17.35;100.00
13594;BME280;6449;47.666;9.160;2023-09-19T04:36:19;96860.78;;;17.30;100.00
13594;BME280;6449;47.666;9.160;2023-09-19T04:41:33;96865.59;;;17.26;100.00
13594;BME280;6449;47.666;9.160;2023-09-19T04:46:31;96863.31;;;17.32;100.00
13594;BME280;6449;47.666;9.160;2023-09-19T04:51:24;96877.88;;;17.36;100.00
13594;BME280;6449;47.666;9.160;2023-09-19T04:56:21;96875.38;;;17.34;100.00
13594;BME280;6449;47.666;9.160;2023-09-19T05:01:20;96884.84;;;17.37;100.00
13594;BME280;6449;47.666;9.160;2023-09-19T05:06:16;96876.91;;;17.37;100.00
13594;BME280;6449;47.666;9.160;2023-09-19T05:11:10;96885.81;;;17.27;100.00
13594;BME280;6449;47.666;9.160;2023-09-19T05:16:09;96893.84;;;17.18;100.00
13594;BME280;6449;47.666;9.160;2023-09-19T05:21:05;96890.06;;;17.20;100.00
13594;BME280;6449;47.666;9.160;2023-09-19T05:26:00;96892.75;;;17.28;100.00
13594;BME280;6449;47.666;9.160;2023-09-19T05:30:53;96904.81;;;17.23;100.00
13594;BME280;6449;47.666;9.160;2023-09-19T05:35:48;96907.34;;;17.33;100.00
13594;BME280;6449;47.666;9.160;2023-09-19T05:40:44;96908.22;;;17.41;100.00
13594;BME280;6449;47.666;9.160;2023-09-19T05:45:38;96927.75;;;17.40;100.00
13594;BME280;6449;47.666;9.160;2023-09-19T05:50:32;96927.91;;;17.39;100.00
13594;BME280;6449;47.666;9.160;2023-09-19T05:55:26;96930.00;;;17.53;100.00
13594;BME280;6449;47.666;9.160;2023-09-19T06:00:23;96944.91;;;17.54;100.00
13594;BME280;6449;47.666;9.160;2023-09-19T06:05:18;96945.38;;;17.58;100.00
13594;BME280;6449;47.666;9.160;2023-09-19T06:10:12;96949.84;;;17.49;100.00
13594;BME280;6449;47.666;9.160;2023-09-19T06:15:07;96950.50;;;17.51;100.00
13594;BME280;6449;47.666;9.160;2023-09-19T06:20:07;96956.69;;;17.68;100.00
13594;BME280;6449;47.666;9.160;2023-09-19T06:25:05;96966.47;;;17.59;100.00
13594;BME280;6449;47.666;9.160;2023-09-19T06:29:59;96965.94;;;17.55;100.00
13594;BME280;6449;47.666;9.160;2023-09-19T06:34:53;96961.81;;;17.61;100.00
13594;BME280;6449;47.666;9.160;2023-09-19T06:39:49;96954.56;;;17.71;100.00
13594;BME280;6449;47.666;9.160;2023-09-19T06:44:42;96954.16;;;17.84;100.00
13594;BME280;6449;47.666;9.160;2023-09-19T06:49:36;96967.09;;;17.87;100.00
13594;BME280;6449;47.666;9.160;2023-09-19T06:54:29;96977.75;;;17.95;100.00
13594;BME280;6449;47.666;9.160;2023-09-19T06:59:24;96987.59;;;18.11;100.00
13594;BME280;6449;47.666;9.160;2023-09-19T07:04:18;96998.34;;;18.10;100.00
13594;BME280;6449;47.666;9.160;2023-09-19T07:09:11;96994.22;;;18.07;100.00
13594;BME280;6449;47.666;9.160;2023-09-19T07:14:05;96986.56;;;18.04;100.00
13594;BME280;6449;47.666;9.160;2023-09-19T07:19:00;97003.47;;;18.03;100.00
13594;BME280;6449;47.666;9.160;2023-09-19T07:23:54;97016.06;;;18.01;100.00
13594;BME280;6449;47.666;9.160;2023-09-19T07:28:47;97018.41;;;18.04;100.00
13594;BME280;6449;47.666;9.160;2023-09-19T07:33:40;97022.09;;;18.19;100.00
13594;BME280;6449;47.666;9.160;2023-09-19T07:38:36;97032.72;;;18.19;100.00
13594;BME280;6449;47.666;9.160;2023-09-19T07:43:29;97035.13;;;18.39;100.00
13594;BME280;6449;47.666;9.160;2023-09-19T07:48:23;97026.16;;;18.48;100.00
13594;BME280;6449;47.666;9.160;2023-09-19T07:53:17;97034.81;;;18.58;100.00
13594;BME280;6449;47.666;9.160;2023-09-19T07:58:11;97036.34;;;18.69;100.00
13594;BME280;6449;47.666;9.160;2023-09-19T08:03:05;97040.56;;;19.04;100.00
13594;BME280;6449;47.666;9.160;2023-09-19T08:08:08;97058.78;;;18.91;100.00
13594;BME280;6449;47.666;9.160;2023-09-19T08:13:01;97047.19;;;19.08;100.00
13594;BME280;6449;47.666;9.160;2023-09-19T08:17:56;97045.69;;;19.46;100.00
13594;BME280;6449;47.666;9.160;2023-09-19T08:22:51;97050.69;;;19.66;100.00
13594;BME280;6449;47.666;9.160;2023-09-19T08:27:47;97078.44;;;19.63;100.00
13594;BME280;6449;47.666;9.160;2023-09-19T08:32:41;97078.09;;;19.42;100.00
13594;BME280;6449;47.666;9.160;2023-09-19T08:37:37;97076.75;;;19.37;100.00
13594;BME280;6449;47.666;9.160;2023-09-19T08:42:30;97091.38;;;19.42;100.00
13594;BME280;6449;47.666;9.160;2023-09-19T08:47:45;97098.69;;;19.80;100.00
13594;BME280;6449;47.666;9.160;2023-09-19T08:52:43;97095.34;;;19.95;100.00
13594;BME280;6449;47.666;9.160;2023-09-19T08:57:37;97102.94;;;20.14;100.00
13594;BME280;6449;47.666;9.160;2023-09-19T09:02:34;97102.63;;;20.09;100.00
13594;BME280;6449;47.666;9.160;2023-09-19T09:07:28;97118.34;;;20.35;100.00
13594;BME280;6449;47.666;9.160;2023-09-19T09:12:23;97120.47;;;20.39;100.00
13594;BME280;6449;47.666;9.160;2023-09-19T09:17:17;97108.72;;;20.26;100.00
13594;BME280;6449;47.666;9.160;2023-09-19T09:22:12;97126.53;;;20.17;100.00
13594;BME280;6449;47.666;9.160;2023-09-19T09:27:07;97128.53;;;20.23;100.00
13594;BME280;6449;47.666;9.160;2023-09-19T09:32:23;97127.38;;;20.26;100.00
13594;BME280;6449;47.666;9.160;2023-09-19T09:37:17;97125.44;;;20.59;100.00
13594;BME280;6449;47.666;9.160;2023-09-19T09:42:30;97118.00;;;20.77;100.00
13594;BME280;6449;47.666;9.160;2023-09-19T09:47:45;97130.06;;;20.65;100.00
13594;BME280;6449;47.666;9.160;2023-09-19T09:52:48;97129.28;;;20.56;100.00
13594;BME280;6449;47.666;9.160;2023-09-19T09:57:42;97133.28;;;20.52;100.00
13594;BME280;6449;47.666;9.160;2023-09-19T10:02:36;97125.41;;;20.67;100.00
13594;BME280;6449;47.666;9.160;2023-09-19T10:07:34;97117.53;;;20.74;100.00
13594;BME280;6449;47.666;9.160;2023-09-19T10:12:42;97131.28;;;20.54;100.00
13594;BME280;6449;47.666;9.160;2023-09-19T10:17:39;97117.16;;;20.46;100.00
13594;BME280;6449;47.666;9.160;2023-09-19T10:22:37;97127.53;;;20.24;100.00
13594;BME280;6449;47.666;9.160;2023-09-19T10:27:32;97123.41;;;20.05;100.00
13594;BME280;6449;47.666;9.160;2023-09-19T10:32:30;97127.56;;;20.16;100.00
13594;BME280;6449;47.666;9.160;2023-09-19T10:37:27;97129.88;;;20.19;100.00
13594;BME280;6449;47.666;9.160;2023-09-19T10:42:28;97127.00;;;20.37;100.00
13594;BME280;6449;47.666;9.160;2023-09-19T10:47:23;97125.25;;;20.60;100.00
13594;BME280;6449;47.666;9.160;2023-09-19T10:52:22;97120.19;;;20.74;100.00
13594;BME280;6449;47.666;9.160;2023-09-19T10:57:20;97110.69;;;21.02;100.00
13594;BME280;6449;47.666;9.160;2023-09-19T11:02:18;97115.84;;;21.04;100.00
13594;BME280;6449;47.666;9.160;2023-09-19T11:07:13;97112.25;;;21.19;100.00
13594;BME280;6449;47.666;9.160;2023-09-19T11:12:08;97111.63;;;21.40;100.00
13594;BME280;6449;47.666;9.160;2023-09-19T11:17:42;97114.72;;;21.67;100.00
13594;BME280;6449;47.666;9.160;2023-09-19T11:23:20;97103.03;;;21.53;100.00
13594;BME280;6449;47.666;9.160;2023-09-19T11:28:33;97109.97;;;21.39;100.00
13594;BME280;6449;47.666;9.160;2023-09-19T11:33:31;97102.34;;;21.36;100.00
13594;BME280;6449;47.666;9.160;2023-09-19T11:38:58;97108.66;;;21.58;100.00
13594;BME280;6449;47.666;9.160;2023-09-19T11:44:33;97106.00;;;21.35;100.00
13594;BME280;6449;47.666;9.160;2023-09-19T11:49:32;97106.53;;;21.54;100.00
13594;BME280;6449;47.666;9.160;2023-09-19T11:54:27;97105.00;;;21.74;100.00
13594;BME280;6449;47.666;9.160;2023-09-19T11:59:25;97093.31;;;22.05;100.00
13594;BME280;6449;47.666;9.160;2023-09-19T12:04:34;97088.38;;;22.02;100.00
13594;BME280;6449;47.666;9.160;2023-09-19T12:09:32;97083.19;;;21.70;100.00
13594;BME280;6449;47.666;9.160;2023-09-19T12:14:26;97090.19;;;21.86;100.00
13594;BME280;6449;47.666;9.160;2023-09-19T12:19:21;97081.53;;;21.99;100.00
13594;BME280;6449;47.666;9.160;2023-09-19T12:24:17;97075.31;;;22.07;100.00
13594;BME280;6449;47.666;9.160;2023-09-19T12:29:16;97071.34;;;22.03;100.00
13594;BME280;6449;47.666;9.160;2023-09-19T12:34:11;97064.41;;;21.93;100.00
13594;BME280;6449;47.666;9.160;2023-09-19T12:39:07;97054.47;;;21.87;100.00
13594;BME280;6449;47.666;9.160;2023-09-19T12:44:04;97057.03;;;21.66;100.00
13594;BME280;6449;47.666;9.160;2023-09-19T12:49:18;97055.72;;;21.62;100.00
13594;BME280;6449;47.666;9.160;2023-09-19T12:54:11;97041.81;;;21.52;100.00
13594;BME280;6449;47.666;9.160;2023-09-19T12:59:08;97039.28;;;21.58;100.00
13594;BME280;6449;47.666;9.160;2023-09-19T13:04:15;97035.84;;;21.50;100.00
13594;BME280;6449;47.666;9.160;2023-09-19T13:09:11;97032.84;;;21.53;100.00
13594;BME280;6449;47.666;9.160;2023-09-19T13:14:22;97023.31;;;21.35;100.00
13594;BME280;6449;47.666;9.160;2023-09-19T13:19:42;97021.03;;;21.09;100.00
13594;BME280;6449;47.666;9.160;2023-09-19T13:24:42;97009.16;;;21.12;100.00
13594;BME280;6449;47.666;9.160;2023-09-19T13:29:37;97018.69;;;21.06;100.00
13594;BME280;6449;47.666;9.160;2023-09-19T13:34:30;97009.84;;;21.29;100.00
13594;BME280;6449;47.666;9.160;2023-09-19T13:39:25;97005.59;;;21.42;100.00
13594;BME280;6449;47.666;9.160;2023-09-19T13:44:19;96999.31;;;21.50;100.00
13594;BME280;6449;47.666;9.160;2023-09-19T13:49:14;96991.69;;;21.62;100.00
13594;BME280;6449;47.666;9.160;2023-09-19T13:54:07;96996.41;;;21.60;100.00
13594;BME280;6449;47.666;9.160;2023-09-19T13:59:01;96987.53;;;21.44;100.00
13594;BME280;6449;47.666;9.160;2023-09-19T14:03:54;96989.88;;;21.48;100.00
13594;BME280;6449;47.666;9.160;2023-09-19T14:08:50;96982.97;;;21.68;100.00
13594;BME280;6449;47.666;9.160;2023-09-19T14:13:44;96982.78;;;21.84;100.00
13594;BME280;6449;47.666;9.160;2023-09-19T14:18:40;96972.00;;;21.92;100.00
13594;BME280;6449;47.666;9.160;2023-09-19T14:23:37;96967.75;;;21.83;100.00
13594;BME280;6449;47.666;9.160;2023-09-19T14:28:32;96949.06;;;21.83;100.00
13594;BME280;6449;47.666;9.160;2023-09-19T14:33:27;96955.63;;;21.66;100.00
13594;BME280;6449;47.666;9.160;2023-09-19T14:38:20;96947.00;;;21.64;100.00
13594;BME280;6449;47.666;9.160;2023-09-19T14:43:13;96944.22;;;21.72;100.00
13594;BME280;6449;47.666;9.160;2023-09-19T14:48:08;96937.69;;;21.75;100.00
13594;BME280;6449;47.666;9.160;2023-09-19T14:53:04;96938.44;;;21.68;100.00
13594;BME280;6449;47.666;9.160;2023-09-19T14:58:01;96931.06;;;21.70;100.00
13594;BME280;6449;47.666;9.160;2023-09-19T15:02:55;96924.50;;;21.73;100.00
13594;BME280;6449;47.666;9.160;2023-09-19T15:07:50;96919.28;;;21.80;100.00
13594;BME280;6449;47.666;9.160;2023-09-19T15:12:44;96917.44;;;21.65;100.00
13594;BME280;6449;47.666;9.160;2023-09-19T15:17:37;96914.69;;;21.74;100.00
13594;BME280;6449;47.666;9.160;2023-09-19T15:22:30;96922.97;;;21.64;100.00
13594;BME280;6449;47.666;9.160;2023-09-19T15:27:25;96917.81;;;21.62;100.00
13594;BME280;6449;47.666;9.160;2023-09-19T15:32:19;96915.06;;;21.56;100.00
13594;BME280;6449;47.666;9.160;2023-09-19T15:37:12;96914.78;;;21.51;100.00
13594;BME280;6449;47.666;9.160;2023-09-19T15:42:06;96916.34;;;21.45;100.00
13594;BME280;6449;47.666;9.160;2023-09-19T15:47:00;96921.78;;;21.37;100.00
13594;BME280;6449;47.666;9.160;2023-09-19T15:51:54;96923.97;;;21.33;100.00
13594;BME280;6449;47.666;9.160;2023-09-19T15:56:48;96917.50;;;21.28;100.00
13594;BME280;6449;47.666;9.160;2023-09-19T16:01:44;96918.53;;;21.27;100.00
13594;BME280;6449;47.666;9.160;2023-09-19T16:06:40;96907.03;;;21.11;100.00
13594;BME280;6449;47.666;9.160;2023-09-19T16:11:35;96914.19;;;21.11;100.00
13594;BME280;6449;47.666;9.160;2023-09-19T16:16:29;96913.25;;;21.04;100.00
13594;BME280;6449;47.666;9.160;2023-09-19T16:21:25;96909.84;;;20.95;100.00
13594;BME280;6449;47.666;9.160;2023-09-19T16:26:22;96899.72;;;20.90;100.00
13594;BME280;6449;47.666;9.160;2023-09-19T16:31:18;96895.75;;;20.86;100.00
13594;BME280;6449;47.666;9.160;2023-09-19T16:36:13;96894.84;;;20.79;100.00
13594;BME280;6449;47.666;9.160;2023-09-19T16:41:07;96887.28;;;20.68;100.00
13594;BME280;6449;47.666;9.160;2023-09-19T16:46:04;96895.31;;;20.60;100.00
13594;BME280;6449;47.666;9.160;2023-09-19T16:51:04;96893.09;;;20.49;100.00
13594;BME280;6449;47.666;9.160;2023-09-19T16:56:02;96894.47;;;20.36;100.00
13594;BME280;6449;47.666;9.160;2023-09-19T17:00:57;96894.72;;;20.27;100.00
13594;BME280;6449;47.666;9.160;2023-09-19T17:05:57;96892.38;;;20.24;100.00
13594;BME280;6449;47.666;9.160;2023-09-19T17:10:50;96896.25;;;20.21;100.00
13594;BME280;6449;47.666;9.160;2023-09-19T17:15:44;96895.88;;;20.01;100.00
13594;BME280;6449;47.666;9.160;2023-09-19T17:20:41;96893.59;;;19.90;100.00
13594;BME280;6449;47.666;9.160;2023-09-19T17:25:36;96894.03;;;19.71;100.00
13594;BME280;6449;47.666;9.160;2023-09-19T17:30:29;96898.41;;;19.55;100.00
13594;BME280;6449;47.666;9.160;2023-09-19T17:35:24;96888.16;;;19.44;100.00
13594;BME280;6449;47.666;9.160;2023-09-19T17:40:17;96888.94;;;19.53;100.00
13594;BME280;6449;47.666;9.160;2023-09-19T17:45:12;96890.56;;;19.54;100.00
13594;BME280;6449;47.666;9.160;2023-09-19T17:50:07;96895.06;;;19.53;100.00
13594;BME280;6449;47.666;9.160;2023-09-19T17:55:06;96882.28;;;19.49;100.00
13594;BME280;6449;47.666;9.160;2023-09-19T17:59:59;96898.16;;;19.34;100.00
13594;BME280;6449;47.666;9.160;2023-09-19T18:04:54;96894.13;;;19.38;100.00
13594;BME280;6449;47.666;9.160;2023-09-19T18:09:48;96901.47;;;19.28;100.00
13594;BME280;6449;47.666;9.160;2023-09-19T18:14:43;96905.16;;;19.19;100.00
13594;BME280;6449;47.666;9.160;2023-09-19T18:19:37;96901.88;;;19.00;100.00
13594;BME280;6449;47.666;9.160;2023-09-19T18:24:32;96907.34;;;18.91;100.00
13594;BME280;6449;47.666;9.160;2023-09-19T18:29:26;96901.06;;;18.92;100.00
13594;BME280;6449;47.666;9.160;2023-09-19T18:34:19;96901.53;;;18.95;100.00
13594;BME280;6449;47.666;9.160;2023-09-19T18:39:13;96913.19;;;18.86;100.00
13594;BME280;6449;47.666;9.160;2023-09-19T18:44:13;96913.16;;;18.53;100.00
13594;BME280;6449;47.666;9.160;2023-09-19T18:49:07;96922.63;;;18.40;100.00
13594;BME280;6449;47.666;9.160;2023-09-19T18:54:01;96918.13;;;18.40;100.00
13594;BME280;6449;47.666;9.160;2023-09-19T18:59:04;96927.28;;;18.46;100.00
13594;BME280;6449;47.666;9.160;2023-09-19T19:04:00;96926.13;;;18.48;100.00
13594;BME280;6449;47.666;9.160;2023-09-19T19:08:53;96944.50;;;18.25;100.00
13594;BME280;6449;47.666;9.160;2023-09-19T19:13:47;96935.53;;;18.26;100.00
13594;BME280;6449;47.666;9.160;2023-09-19T19:18:41;96938.56;;;18.40;100.00
13594;BME280;6449;47.666;9.160;2023-09-19T19:23:37;96944.19;;;18.28;100.00
13594;BME280;6449;47.666;9.160;2023-09-19T19:28:31;96943.44;;;18.02;100.00
13594;BME280;6449;47.666;9.160;2023-09-19T19:33:27;96938.19;;;18.18;100.00
13594;BME280;6449;47.666;9.160;2023-09-19T19:38:20;96944.50;;;18.33;100.00
13594;BME280;6449;47.666;9.160;2023-09-19T19:43:17;96949.78;;;18.17;100.00
13594;BME280;6449;47.666;9.160;2023-09-19T19:48:10;96956.94;;;18.25;100.00
13594;BME280;6449;47.666;9.160;2023-09-19T19:53:04;96961.72;;;18.21;100.00
13594;BME280;6449;47.666;9.160;2023-09-19T19:57:57;96970.09;;;17.92;100.00
13594;BME280;6449;47.666;9.160;2023-09-19T20:02:52;96976.88;;;17.87;100.00
13594;BME280;6449;47.666;9.160;2023-09-19T20:07:46;96975.09;;;17.95;100.00
13594;BME280;6449;47.666;9.160;2023-09-19T20:12:40;96988.50;;;17.94;100.00
13594;BME280;6449;47.666;9.160;2023-09-19T20:17:34;96991.38;;;18.00;100.00
13594;BME280;6449;47.666;9.160;2023-09-19T20:22:28;96994.34;;;17.97;100.00
13594;BME280;6449;47.666;9.160;2023-09-19T20:27:22;96990.88;;;18.05;100.00
13594;BME280;6449;47.666;9.160;2023-09-19T20:32:15;96999.66;;;18.05;100.00
13594;BME280;6449;47.666;9.160;2023-09-19T20:37:11;97004.31;;;18.03;100.00
13594;BME280;6449;47.666;9.160;2023-09-19T20:42:06;96999.75;;;17.79;100.00
13594;BME280;6449;47.666;9.160;2023-09-19T20:47:00;97007.34;;;17.74;100.00
13594;BME280;6449;47.666;9.160;2023-09-19T20:51:55;97012.56;;;17.66;100.00
13594;BME280;6449;47.666;9.160;2023-09-19T20:56:48;97009.31;;;17.72;100.00
13594;BME280;6449;47.666;9.160;2023-09-19T21:01:45;97014.03;;;17.87;100.00
13594;BME280;6449;47.666;9.160;2023-09-19T21:06:39;97019.13;;;17.80;100.00
13594;BME280;6449;47.666;9.160;2023-09-19T21:11:32;97023.50;;;17.63;100.00
13594;BME280;6449;47.666;9.160;2023-09-19T21:16:26;97005.88;;;17.54;100.00
13594;BME280;6449;47.666;9.160;2023-09-19T21:21:21;97005.25;;;17.60;100.00
13594;BME280;6449;47.666;9.160;2023-09-19T21:26:15;97004.69;;;17.74;100.00
13594;BME280;6449;47.666;9.160;2023-09-19T21:31:09;97010.41;;;17.96;100.00
13594;BME280;6449;47.666;9.160;2023-09-19T21:36:06;97006.09;;;17.95;100.00
13594;BME280;6449;47.666;9.160;2023-09-19T21:41:07;97011.00;;;17.82;100.00
13594;BME280;6449;47.666;9.160;2023-09-19T21:46:03;97003.00;;;17.73;100.00
13594;BME280;6449;47.666;9.160;2023-09-19T21:50:57;97008.72;;;17.61;100.00
13594;BME280;6449;47.666;9.160;2023-09-19T21:55:58;97013.03;;;17.62;100.00
13594;BME280;6449;47.666;9.160;2023-09-19T22:00:54;97018.22;;;17.45;100.00
13594;BME280;6449;47.666;9.160;2023-09-19T22:05:47;97018.69;;;17.41;100.00
13594;BME280;6449;47.666;9.160;2023-09-19T22:10:41;97016.22;;;17.39;100.00
13594;BME280;6449;47.666;9.160;2023-09-19T22:15:35;97019.84;;;17.38;100.00
13594;BME280;6449;47.666;9.160;2023-09-19T22:20:35;97004.59;;;17.32;100.00
13594;BME280;6449;47.666;9.160;2023-09-19T22:25:39;97002.44;;;17.36;100.00
13594;BME280;6449;47.666;9.160;2023-09-19T22:30:35;97000.09;;;17.33;100.00
13594;BME280;6449;47.666;9.160;2023-09-19T22:35:30;96998.13;;;17.35;100.00
13594;BME280;6449;47.666;9.160;2023-09-19T22:40:27;96996.81;;;17.39;100.00
13594;BME280;6449;47.666;9.160;2023-09-19T22:45:23;97004.59;;;17.32;100.00
13594;BME280;6449;47.666;9.160;2023-09-19T22:50:17;97003.78;;;17.14;100.00
13594;BME280;6449;47.666;9.160;2023-09-19T22:55:16;96997.06;;;17.01;100.00
13594;BME280;6449;47.666;9.160;2023-09-19T23:00:17;96993.59;;;17.01;100.00
13594;BME280;6449;47.666;9.160;2023-09-19T23:05:12;96992.31;;;17.05;100.00
13594;BME280;6449;47.666;9.160;2023-09-19T23:10:09;96990.34;;;16.89;100.00
13594;BME280;6449;47.666;9.160;2023-09-19T23:15:09;97006.78;;;16.75;100.00
13594;BME280;6449;47.666;9.160;2023-09-19T23:20:11;96996.41;;;16.82;100.00
13594;BME280;6449;47.666;9.160;2023-09-19T23:25:17;96996.31;;;16.91;100.00
13594;BME280;6449;47.666;9.160;2023-09-19T23:30:18;96992.47;;;16.86;100.00
13594;BME280;6449;47.666;9.160;2023-09-19T23:35:16;97001.69;;;16.82;100.00
13594;BME280;6449;47.666;9.160;2023-09-19T23:40:12;96993.69;;;16.91;100.00
13594;BME280;6449;47.666;9.160;2023-09-19T23:45:12;96993.13;;;16.88;100.00
13594;BME280;6449;47.666;9.160;2023-09-19T23:50:07;96991.44;;;16.79;100.00
13594;BME280;6449;47.666;9.160;2023-09-19T23:55:07;96995.94;;;16.68;100.00
